Time;durP1;ratioP1;P1;durP2;ratioP2;P2;SDS_P1;SDS_P2;PMS_P1;PMS_P2;Temp;Humidity;BMP_temperature;BMP_pressure;BME280_temperature;BME280_humidity;BME280_pressure;Samples;Min_cycle;Max_cycle;Signal;HPM_P1;HPM_P2
2021/11/08 00:01:36;;;;;;;23.10;3.65;;;8.40;99.90;;;;;;5093784;28;20502;-74
2021/11/08 00:04:03;;;;;;;13.25;3.50;;;8.40;99.90;;;;;;5092602;28;20043;-74
2021/11/08 00:06:29;;;;;;;14.23;2.88;;;8.40;99.90;;;;;;5093961;28;20380;-74
2021/11/08 00:08:55;;;;;;;21.83;3.45;;;8.40;99.90;;;;;;5093554;28;20048;-74
2021/11/08 00:11:20;;;;;;;20.20;3.50;;;8.40;99.90;;;;;;5093885;28;20036;-74
2021/11/08 00:13:46;;;;;;;11.23;2.90;;;8.40;99.90;;;;;;5093946;28;20040;-74
2021/11/08 00:16:27;;;;;;;19.25;3.30;;;8.40;99.90;;;;;;5093973;28;20123;-74
2021/11/08 00:19:23;;;;;;;14.88;3.42;;;8.40;99.90;;;;;;5092148;28;20043;-74
2021/11/08 00:21:49;;;;;;;22.80;3.42;;;8.40;99.90;;;;;;5093597;28;20044;-74
2021/11/08 00:24:21;;;;;;;18.02;2.92;;;8.40;99.90;;;;;;5092660;28;20040;-74
2021/11/08 00:26:47;;;;;;;20.33;3.35;;;8.40;99.90;;;;;;5093999;28;20499;-74
2021/11/08 00:29:12;;;;;;;18.33;3.53;;;8.50;99.90;;;;;;5092054;28;20068;-74
2021/11/08 00:31:38;;;;;;;19.10;2.80;;;8.50;99.90;;;;;;5093477;28;20044;-74
2021/11/08 00:34:03;;;;;;;13.15;3.42;;;8.40;99.90;;;;;;5093774;28;20032;-74
2021/11/08 00:36:30;;;;;;;18.80;2.90;;;8.50;99.90;;;;;;5093326;28;20040;-74
2021/11/08 00:38:56;;;;;;;17.55;2.92;;;8.50;99.90;;;;;;5093215;28;20032;-74
2021/11/08 00:41:22;;;;;;;18.73;3.90;;;8.50;99.90;;;;;;5093436;28;20039;-74
2021/11/08 00:43:48;;;;;;;13.52;3.25;;;8.50;99.90;;;;;;5092082;28;20450;-74
2021/11/08 00:46:13;;;;;;;16.30;2.60;;;8.50;99.90;;;;;;5093318;28;20040;-74
2021/11/08 00:48:39;;;;;;;14.32;2.88;;;8.50;99.90;;;;;;5093143;28;20483;-74
2021/11/08 00:51:05;;;;;;;16.60;3.13;;;8.50;99.90;;;;;;5093768;28;20118;-74
2021/11/08 00:53:31;;;;;;;12.23;2.83;;;8.40;99.90;;;;;;5093746;28;20111;-74
2021/11/08 00:56:03;;;;;;;12.25;3.08;;;8.50;99.90;;;;;;5092016;28;20089;-74
2021/11/08 00:58:33;;;;;;;17.50;2.80;;;8.40;99.90;;;;;;5095319;28;20044;-74
2021/11/08 01:01:03;;;;;;;21.27;4.90;;;8.50;99.90;;;;;;5096341;28;20055;-74
2021/11/08 01:03:35;;;;;;;22.15;2.75;;;8.40;99.90;;;;;;5097764;28;20047;-74
2021/11/08 01:06:01;;;;;;;14.02;3.03;;;8.40;99.90;;;;;;5096596;28;20047;-74
2021/11/08 01:08:27;;;;;;;12.35;2.13;;;8.40;99.90;;;;;;5097177;28;20467;-77
2021/11/08 01:10:53;;;;;;;12.38;2.47;;;8.40;99.90;;;;;;5095824;28;20123;-74
2021/11/08 01:13:19;;;;;;;14.15;2.67;;;8.40;99.90;;;;;;5097037;28;20123;-74
2021/11/08 01:15:45;;;;;;;8.35;1.73;;;8.30;99.90;;;;;;5096182;28;20044;-74
2021/11/08 01:18:11;;;;;;;13.55;2.70;;;8.30;99.90;;;;;;5097015;28;20043;-74
2021/11/08 01:20:45;;;;;;;12.63;2.00;;;8.30;99.90;;;;;;5096706;28;20040;-74
2021/11/08 01:23:15;;;;;;;10.35;2.05;;;8.30;99.90;;;;;;5096832;28;20043;-74
2021/11/08 01:25:41;;;;;;;14.43;2.17;;;8.30;99.90;;;;;;5096859;28;20560;-74
2021/11/08 01:28:09;;;;;;;13.77;2.42;;;8.20;99.90;;;;;;5095919;28;20049;-74
2021/11/08 01:30:34;;;;;;;9.52;1.55;;;8.20;99.90;;;;;;5096877;28;20388;-74
2021/11/08 01:33:08;;;;;;;8.15;1.52;;;8.20;99.90;;;;;;5095849;28;20047;-74
2021/11/08 01:35:56;;;;;;;11.05;1.95;;;8.10;99.90;;;;;;5097127;28;20032;-74
2021/11/08 01:38:26;;;;;;;5.95;1.58;;;8.10;99.90;;;;;;5097036;28;20044;-75
2021/11/08 01:40:52;;;;;;;13.55;2.28;;;8.10;99.90;;;;;;5096461;28;20119;-74
2021/11/08 01:43:20;;;;;;;9.48;1.90;;;8.00;99.90;;;;;;5095288;28;20036;-74
2021/11/08 01:45:45;;;;;;;12.27;1.90;;;8.00;99.90;;;;;;5095466;28;20044;-74
2021/11/08 01:48:12;;;;;;;6.75;1.50;;;8.00;99.90;;;;;;5096667;28;20046;-74
2021/11/08 01:50:39;;;;;;;7.45;1.20;;;7.90;99.90;;;;;;5096118;28;20036;-74
2021/11/08 01:53:05;;;;;;;10.13;1.63;;;7.90;99.90;;;;;;5096309;28;20503;-74
2021/11/08 01:55:31;;;;;;;8.05;1.63;;;7.90;99.90;;;;;;5095032;28;20047;-74
2021/11/08 01:57:58;;;;;;;9.43;1.35;;;7.90;99.90;;;;;;5096452;28;20036;-74
2021/11/08 02:00:26;;;;;;;8.48;2.13;;;7.90;99.90;;;;;;5096012;28;20115;-74
2021/11/08 02:02:52;;;;;;;12.18;2.05;;;7.90;99.90;;;;;;5096120;28;20036;-74
2021/11/08 02:05:19;;;;;;;15.90;2.03;;;7.90;99.90;;;;;;5096212;28;20036;-74
2021/11/08 02:07:45;;;;;;;6.40;1.80;;;7.80;99.90;;;;;;5096304;28;20076;-74
2021/11/08 02:10:12;;;;;;;14.23;1.98;;;7.80;99.90;;;;;;5094825;28;20079;-74
2021/11/08 02:12:39;;;;;;;7.07;1.55;;;7.80;99.90;;;;;;5095893;28;20086;-74
2021/11/08 02:15:07;;;;;;;11.90;2.40;;;7.80;99.90;;;;;;5095843;28;20040;-74
2021/11/08 02:17:33;;;;;;;9.98;2.03;;;7.70;99.90;;;;;;5096102;28;20040;-74
2021/11/08 02:20:14;;;;;;;10.90;2.13;;;7.80;99.90;;;;;;5095739;28;20105;-74
2021/11/08 02:22:40;;;;;;;9.57;2.33;;;7.70;99.90;;;;;;5096039;28;20035;-74
2021/11/08 02:25:07;;;;;;;12.52;2.00;;;7.70;99.90;;;;;;5096196;28;20074;-74
2021/11/08 02:27:33;;;;;;;9.60;2.08;;;7.70;99.90;;;;;;5095980;28;20079;-74
2021/11/08 02:30:00;;;;;;;8.85;1.45;;;7.60;99.90;;;;;;5094312;28;20056;-74
2021/11/08 02:32:27;;;;;;;8.07;2.35;;;7.60;99.90;;;;;;5094779;28;20078;-74
2021/11/08 02:34:53;;;;;;;9.38;1.63;;;7.60;99.90;;;;;;5095429;28;20388;-74
2021/11/08 02:37:19;;;;;;;13.15;1.95;;;7.60;99.90;;;;;;5095932;28;20036;-74
2021/11/08 02:39:47;;;;;;;12.25;2.40;;;7.60;99.90;;;;;;5095280;28;20173;-74
2021/11/08 02:42:13;;;;;;;15.20;2.33;;;7.50;99.90;;;;;;5094388;28;20059;-74
2021/11/08 02:44:39;;;;;;;11.90;1.83;;;7.50;99.90;;;;;;5095370;28;20048;-74
2021/11/08 02:47:04;;;;;;;6.70;1.67;;;7.50;99.90;;;;;;5094190;28;20516;-74
2021/11/08 02:49:33;;;;;;;12.80;2.47;;;7.50;99.90;;;;;;5094925;28;20043;-74
2021/11/08 02:52:04;;;;;;;10.52;2.92;;;7.40;99.90;;;;;;5093999;28;20062;-74
2021/11/08 02:54:43;;;;;;;15.80;2.65;;;7.40;99.90;;;;;;5095319;28;20097;-74
2021/11/08 02:57:09;;;;;;;11.50;1.88;;;7.50;99.90;;;;;;5095627;28;20051;-74
2021/11/08 02:59:37;;;;;;;8.70;2.55;;;7.50;99.90;;;;;;5095015;28;20044;-74
2021/11/08 03:02:05;;;;;;;11.75;2.58;;;7.50;99.90;;;;;;5094038;28;20050;-74
2021/11/08 03:04:38;;;;;;;10.75;2.08;;;7.50;99.90;;;;;;5095183;28;20505;-74
2021/11/08 03:07:04;;;;;;;10.88;2.65;;;7.50;99.90;;;;;;5095278;28;20119;-74
2021/11/08 03:09:34;;;;;;;10.13;2.55;;;7.50;99.90;;;;;;5094538;28;20075;-74
2021/11/08 03:12:09;;;;;;;12.40;2.08;;;7.50;99.90;;;;;;5095183;28;20064;-74
2021/11/08 03:14:39;;;;;;;10.75;2.85;;;7.40;99.90;;;;;;5093862;28;20487;-74
2021/11/08 03:17:05;;;;;;;16.20;3.13;;;7.40;99.90;;;;;;5094759;28;20087;-74
2021/11/08 03:19:33;;;;;;;12.30;2.75;;;7.40;99.90;;;;;;5094511;28;20063;-74
2021/11/08 03:22:01;;;;;;;8.52;1.70;;;7.40;99.90;;;;;;5094382;28;20082;-74
2021/11/08 03:27:26;;;;;;;13.68;2.15;;;7.40;99.90;;;;;;5093435;28;20052;-74
2021/11/08 03:29:53;;;;;;;22.05;2.47;;;7.40;99.90;;;;;;5094273;28;20032;-74
2021/11/08 03:32:20;;;;;;;18.50;3.00;;;7.40;99.90;;;;;;5094806;28;20764;-74
2021/11/08 03:34:54;;;;;;;13.52;2.22;;;7.50;99.90;;;;;;5094434;28;20055;-74
2021/11/08 03:37:20;;;;;;;8.27;2.05;;;7.50;99.90;;;;;;5094413;28;20476;-74
2021/11/08 03:39:45;;;;;;;20.90;3.70;;;7.50;99.90;;;;;;5093015;28;20048;-74
2021/11/08 03:42:11;;;;;;;10.18;2.08;;;7.50;99.90;;;;;;5094205;28;20449;-74
2021/11/08 03:44:38;;;;;;;8.85;2.03;;;7.50;99.90;;;;;;5094605;28;20047;-74
2021/11/08 03:47:03;;;;;;;16.75;2.70;;;7.50;99.90;;;;;;5094478;28;20048;-74
2021/11/08 03:49:29;;;;;;;10.95;2.65;;;7.60;99.90;;;;;;5092799;28;20047;-74
2021/11/08 03:51:54;;;;;;;14.77;2.85;;;7.50;99.90;;;;;;5092822;28;20044;-74
2021/11/08 03:54:20;;;;;;;12.88;3.33;;;7.50;99.90;;;;;;5094400;28;20478;-74
2021/11/08 03:56:46;;;;;;;12.10;2.30;;;7.50;99.90;;;;;;5094179;28;20036;-74
2021/11/08 03:59:11;;;;;;;14.77;2.63;;;7.50;99.90;;;;;;5092473;28;20040;-74
2021/11/08 04:01:37;;;;;;;16.60;2.78;;;7.60;99.90;;;;;;5092666;28;20087;-74
2021/11/08 04:04:05;;;;;;;13.98;3.33;;;7.60;99.90;;;;;;5076083;28;20375;-74
2021/11/08 04:06:33;;;;;;;13.70;2.40;;;7.60;99.90;;;;;;5092592;28;20130;-74
2021/11/08 04:08:59;;;;;;;8.90;2.15;;;7.60;99.90;;;;;;5093452;28;20032;-74
2021/11/08 04:11:27;;;;;;;12.07;2.45;;;7.70;99.90;;;;;;5092637;28;20050;-74
2021/11/08 04:13:56;;;;;;;16.52;2.60;;;7.70;99.90;;;;;;5093855;28;20085;-74
2021/11/08 04:16:22;;;;;;;13.32;2.67;;;7.70;99.90;;;;;;5092675;28;20044;-74
2021/11/08 04:18:53;;;;;;;14.80;2.30;;;7.80;99.90;;;;;;5093419;28;20358;-74
2021/11/08 04:21:20;;;;;;;16.70;2.58;;;7.80;99.90;;;;;;5093912;28;20556;-74
2021/11/08 04:23:46;;;;;;;16.92;2.78;;;7.80;99.90;;;;;;5093993;28;20161;-74
2021/11/08 04:26:18;;;;;;;5.72;2.00;;;7.80;99.90;;;;;;5093624;28;20115;-74
2021/11/08 04:28:51;;;;;;;8.55;1.98;;;7.90;99.90;;;;;;5093235;28;20040;-74
2021/11/08 04:31:17;;;;;;;12.40;2.75;;;7.90;99.90;;;;;;5094146;28;20044;-74
2021/11/08 04:33:55;;;;;;;9.57;2.10;;;7.80;99.90;;;;;;5092600;28;20036;-74
2021/11/08 04:44:45;;;;;;;10.90;1.70;;;7.70;99.90;;;;;;5093627;28;20384;-74
2021/11/08 04:47:39;;;;;;;10.15;3.05;;;7.70;99.90;;;;;;5092458;28;20051;-74
2021/11/08 04:50:21;;;;;;;10.52;2.30;;;7.60;99.90;;;;;;5091844;28;20131;-74
2021/11/08 04:58:52;;;;;;;13.43;2.10;;;7.60;99.90;;;;;;5093213;28;20475;-74
2021/11/08 05:28:29;;;;;;;15.82;2.45;;;7.40;99.90;;;;;;5092233;28;20040;-74
2021/11/08 05:30:55;;;;;;;14.68;1.80;;;7.40;99.90;;;;;;5093010;28;20118;-74
2021/11/08 05:33:23;;;;;;;14.70;2.28;;;7.40;99.90;;;;;;5092812;28;20135;-74
2021/11/08 05:35:48;;;;;;;15.75;2.65;;;7.50;99.90;;;;;;5091863;28;20127;-74
2021/11/08 05:38:15;;;;;;;14.88;2.20;;;7.50;99.90;;;;;;5092854;28;20548;-74
2021/11/08 05:40:41;;;;;;;12.60;2.40;;;7.60;99.90;;;;;;5092646;28;20032;-75
2021/11/08 05:43:07;;;;;;;16.30;2.35;;;7.60;99.90;;;;;;5090949;28;20557;-74
2021/11/08 05:45:34;;;;;;;13.88;2.13;;;7.60;99.90;;;;;;5096691;28;20044;-74
2021/11/08 05:48:04;;;;;;;9.13;1.92;;;7.60;99.90;;;;;;5096522;28;20039;-75
2021/11/08 05:50:32;;;;;;;10.98;2.03;;;7.60;99.90;;;;;;5094986;28;20097;-74
2021/11/08 05:52:58;;;;;;;13.07;2.83;;;7.70;99.90;;;;;;5095382;28;20470;-74
2021/11/08 05:55:50;;;;;;;11.35;2.80;;;7.70;99.90;;;;;;5095094;28;20048;-73
2021/11/08 06:50:11;;;;;;;12.02;2.22;;;7.50;99.90;;;;;;5095233;28;20044;-74
2021/11/08 06:52:37;;;;;;;10.50;2.08;;;7.60;99.90;;;;;;5095342;28;20050;-74
2021/11/08 06:55:06;;;;;;;14.88;2.75;;;7.60;99.90;;;;;;5095224;28;20047;-75
2021/11/08 06:57:51;;;;;;;9.18;1.95;;;7.60;99.90;;;;;;5095339;28;20028;-74
2021/11/08 07:00:19;;;;;;;14.70;2.53;;;7.70;99.90;;;;;;5094090;28;20039;-74
2021/11/08 07:02:45;;;;;;;17.60;2.88;;;7.70;99.90;;;;;;5095396;28;20055;-75
2021/11/08 07:05:10;;;;;;;17.00;3.05;;;7.70;99.90;;;;;;5095401;28;20036;-74
2021/11/08 07:07:36;;;;;;;11.02;2.28;;;7.70;99.90;;;;;;5095067;28;20087;-75
2021/11/08 07:10:03;;;;;;;12.13;2.10;;;7.80;99.90;;;;;;5093607;28;20040;-75
2021/11/08 07:12:29;;;;;;;15.25;2.83;;;7.80;99.90;;;;;;5094884;28;20040;-75
2021/11/08 07:14:55;;;;;;;10.38;2.17;;;7.70;99.90;;;;;;5095273;28;20032;-75
2021/11/08 07:17:20;;;;;;;15.30;2.40;;;7.70;99.90;;;;;;5094319;28;20039;-75
2021/11/08 07:19:46;;;;;;;16.90;2.83;;;7.70;99.90;;;;;;5094489;28;20040;-75
2021/11/08 07:22:12;;;;;;;19.45;3.15;;;7.70;99.90;;;;;;5095033;28;20043;-75
2021/11/08 07:24:38;;;;;;;15.75;2.90;;;7.70;99.90;;;;;;5076654;28;20041;-76
2021/11/08 07:27:04;;;;;;;14.20;3.10;;;7.70;99.90;;;;;;5093833;28;20399;-76
2021/11/08 07:29:30;;;;;;;11.15;3.33;;;7.80;99.90;;;;;;5094335;28;20040;-76
2021/11/08 07:31:57;;;;;;;12.55;2.70;;;7.90;99.90;;;;;;5094910;28;20506;-76
2021/11/08 07:34:23;;;;;;;19.13;2.70;;;8.00;99.90;;;;;;5094665;28;20123;-76
2021/11/08 07:36:49;;;;;;;22.48;3.35;;;8.20;99.90;;;;;;5094539;28;20040;-75
2021/11/08 07:39:15;;;;;;;16.13;3.20;;;8.30;99.90;;;;;;5094381;28;20078;-76
2021/11/08 07:41:41;;;;;;;15.52;3.33;;;8.60;99.90;;;;;;5093580;28;20032;-75
2021/11/08 07:44:06;;;;;;;17.35;2.78;;;8.70;99.90;;;;;;5093553;28;20044;-76
2021/11/08 07:46:32;;;;;;;15.43;2.78;;;8.80;99.90;;;;;;5094487;28;20032;-76
2021/11/08 07:48:57;;;;;;;16.88;3.75;;;9.00;99.90;;;;;;5094396;28;20547;-76
2021/11/08 07:51:23;;;;;;;12.77;3.60;;;9.10;99.90;;;;;;5093237;28;20096;-75
2021/11/08 07:53:49;;;;;;;13.77;2.20;;;9.20;99.90;;;;;;5094584;28;20044;-76
2021/11/08 07:56:15;;;;;;;20.42;3.40;;;9.20;99.90;;;;;;5094482;28;20067;-76
2021/11/08 07:58:41;;;;;;;11.30;2.53;;;9.10;99.90;;;;;;5093693;28;20047;-76
2021/11/08 08:01:08;;;;;;;14.65;2.83;;;9.10;99.90;;;;;;5092781;28;20492;-76
2021/11/08 08:03:33;;;;;;;14.77;2.75;;;9.00;99.90;;;;;;5094077;28;20032;-75
2021/11/08 08:06:01;;;;;;;19.77;3.00;;;9.00;99.90;;;;;;5092867;28;20406;-76
2021/11/08 08:08:27;;;;;;;9.60;2.30;;;9.00;99.90;;;;;;5092711;28;20442;-76
2021/11/08 08:10:53;;;;;;;14.93;2.35;;;8.90;99.90;;;;;;5093858;28;20097;-76
2021/11/08 08:13:26;;;;;;;18.05;2.75;;;8.90;99.90;;;;;;5092989;28;20047;-76
2021/11/08 08:15:58;;;;;;;12.27;2.45;;;8.90;99.90;;;;;;5094237;28;20047;-76
2021/11/08 08:18:24;;;;;;;20.00;3.72;;;8.90;99.90;;;;;;5093901;28;20563;-76
2021/11/08 08:20:50;;;;;;;18.35;3.00;;;8.90;99.90;;;;;;5092533;28;20119;-76
2021/11/08 08:23:15;;;;;;;20.13;2.67;;;8.90;99.90;;;;;;5093951;28;20473;-76
2021/11/08 08:25:41;;;;;;;14.32;2.78;;;8.90;99.90;;;;;;5092413;28;20097;-76
2021/11/08 08:28:06;;;;;;;10.95;2.67;;;9.00;99.90;;;;;;5092345;28;20404;-76
2021/11/08 08:30:32;;;;;;;11.02;2.55;;;9.00;99.90;;;;;;5093533;28;20082;-76
2021/11/08 08:32:58;;;;;;;20.98;3.25;;;9.10;99.90;;;;;;5093485;28;20036;-76
2021/11/08 08:35:23;;;;;;;9.45;2.40;;;9.10;99.90;;;;;;5093426;28;20036;-76
2021/11/08 08:37:49;;;;;;;18.30;3.83;;;9.10;99.90;;;;;;5092644;28;20048;-76
2021/11/08 08:40:15;;;;;;;14.30;2.35;;;9.20;99.90;;;;;;5091988;28;20404;-76
2021/11/08 08:42:41;;;;;;;10.60;2.47;;;9.20;99.90;;;;;;5093557;28;20032;-76
2021/11/08 08:45:08;;;;;;;17.55;2.95;;;9.20;99.90;;;;;;5094208;28;20086;-75
2021/11/08 08:47:34;;;;;;;10.20;2.13;;;9.10;99.90;;;;;;5093553;28;20040;-76
2021/11/08 08:49:59;;;;;;;19.75;3.38;;;9.20;99.90;;;;;;5093244;28;20127;-75
2021/11/08 08:52:26;;;;;;;11.70;2.90;;;9.20;99.90;;;;;;5092587;28;20035;-75
2021/11/08 08:54:54;;;;;;;12.70;2.22;;;9.20;99.90;;;;;;5092930;28;20036;-76
2021/11/08 08:57:20;;;;;;;12.50;2.22;;;9.20;99.90;;;;;;5093449;28;20040;-75
2021/11/08 08:59:45;;;;;;;17.33;3.42;;;9.30;99.90;;;;;;5091974;28;20373;-75
2021/11/08 09:02:12;;;;;;;19.90;3.10;;;9.30;99.90;;;;;;5093286;28;20068;-75
2021/11/08 09:04:38;;;;;;;17.42;2.88;;;9.40;99.90;;;;;;5092022;28;20392;-75
2021/11/08 09:07:05;;;;;;;14.85;3.10;;;9.40;99.90;;;;;;5093134;28;20476;-75
2021/11/08 09:09:31;;;;;;;13.10;2.33;;;9.40;99.90;;;;;;5093198;28;20039;-75
2021/11/08 09:11:57;;;;;;;9.65;2.25;;;9.40;99.90;;;;;;5093540;28;20445;-75
2021/11/08 09:14:26;;;;;;;20.58;3.75;;;9.40;99.90;;;;;;5093310;28;20119;-75
2021/11/08 09:16:52;;;;;;;15.43;2.90;;;9.40;99.90;;;;;;5093446;28;20046;-75
2021/11/08 09:19:18;;;;;;;21.92;3.45;;;9.40;99.90;;;;;;5094575;28;20036;-75
2021/11/08 09:21:43;;;;;;;17.67;2.83;;;9.40;99.90;;;;;;5097491;28;20075;-74
2021/11/08 09:24:09;;;;;;;18.33;3.53;;;9.50;99.90;;;;;;5097174;28;20492;-74
2021/11/08 09:26:36;;;;;;;15.00;3.15;;;9.50;99.90;;;;;;5096195;28;20048;-74
2021/11/08 09:29:03;;;;;;;20.83;3.03;;;9.50;99.90;;;;;;5096730;28;20040;-75
2021/11/08 09:31:29;;;;;;;14.82;2.33;;;9.50;99.90;;;;;;5097078;28;20036;-75
2021/11/08 09:34:03;;;;;;;20.63;4.05;;;9.60;99.90;;;;;;5097089;28;20353;-74
2021/11/08 09:36:33;;;;;;;16.77;3.50;;;9.50;99.90;;;;;;5096957;28;20389;-74
2021/11/08 09:39:00;;;;;;;19.08;3.05;;;9.60;99.90;;;;;;5096504;28;20391;-75
2021/11/08 09:41:33;;;;;;;16.60;3.30;;;9.60;99.90;;;;;;5096980;28;20032;-75
2021/11/08 09:44:01;;;;;;;21.40;3.28;;;9.60;99.90;;;;;;5097013;28;20064;-74
2021/11/08 09:46:28;;;;;;;26.25;4.63;;;9.70;99.90;;;;;;5095439;28;20119;-74
2021/11/08 09:48:54;;;;;;;22.13;3.92;;;9.60;99.90;;;;;;5095068;28;20047;-75
2021/11/08 09:51:20;;;;;;;13.75;3.30;;;9.60;99.90;;;;;;5096678;28;20040;-74
2021/11/08 09:53:46;;;;;;;12.13;3.50;;;9.50;99.90;;;;;;5096416;28;20044;-74
2021/11/08 09:56:14;;;;;;;13.43;3.03;;;9.60;99.90;;;;;;5095119;28;20472;-74
2021/11/08 09:58:40;;;;;;;16.38;3.03;;;9.60;99.90;;;;;;5094795;28;20115;-75
2021/11/08 10:01:11;;;;;;;21.02;4.65;;;9.60;99.90;;;;;;5094350;28;20127;-74
2021/11/08 10:03:38;;;;;;;17.83;3.25;;;9.70;99.90;;;;;;5095575;28;20469;-74
2021/11/08 10:06:05;;;;;;;19.00;3.78;;;9.70;99.90;;;;;;5094957;28;20427;-75
2021/11/08 10:08:35;;;;;;;16.05;3.90;;;9.70;99.90;;;;;;5095882;28;20068;-75
2021/11/08 10:11:04;;;;;;;15.98;3.53;;;9.70;99.90;;;;;;5094873;28;20040;-75
2021/11/08 10:13:32;;;;;;;13.55;3.08;;;9.80;99.90;;;;;;5094707;28;20047;-75
2021/11/08 10:16:01;;;;;;;18.10;3.42;;;9.90;99.90;;;;;;5095924;28;20131;-75
2021/11/08 10:18:28;;;;;;;16.35;3.40;;;9.90;99.90;;;;;;5094941;28;20083;-75
2021/11/08 10:21:05;;;;;;;19.85;3.67;;;10.00;99.90;;;;;;5095977;28;20032;-75
2021/11/08 10:23:30;;;;;;;11.82;2.53;;;9.90;99.90;;;;;;5096146;28;20069;-75
2021/11/08 10:25:56;;;;;;;18.70;3.45;;;9.90;99.90;;;;;;5096180;28;20036;-75
2021/11/08 10:28:25;;;;;;;10.88;3.40;;;9.90;99.90;;;;;;5094595;28;20047;-75
2021/11/08 10:31:15;;;;;;;12.80;2.95;;;10.00;99.90;;;;;;5094774;28;20032;-75
2021/11/08 10:33:42;;;;;;;14.43;3.28;;;10.00;99.90;;;;;;5095925;28;20125;-75
2021/11/08 10:36:18;;;;;;;12.85;2.40;;;10.00;99.90;;;;;;5096051;28;20047;-75
2021/11/08 10:38:47;;;;;;;14.32;2.97;;;10.00;99.90;;;;;;5095800;28;20109;-75
2021/11/08 10:41:19;;;;;;;8.13;2.20;;;10.00;99.90;;;;;;5095720;28;20099;-75
2021/11/08 10:44:08;;;;;;;16.25;2.30;;;10.00;99.90;;;;;;5095428;28;20079;-75
2021/11/08 10:46:36;;;;;;;8.90;1.70;;;10.00;99.90;;;;;;5095550;28;20051;-75
2021/11/08 10:49:10;;;;;;;15.32;3.08;;;10.00;99.90;;;;;;5095108;28;20040;-74
2021/11/08 10:51:37;;;;;;;13.02;2.40;;;10.10;99.90;;;;;;5095924;28;20103;-75
2021/11/08 10:54:09;;;;;;;10.00;2.10;;;10.10;99.90;;;;;;5095471;28;20119;-75
2021/11/08 10:56:39;;;;;;;13.93;1.83;;;10.20;99.90;;;;;;5094083;28;20094;-75
2021/11/08 10:59:13;;;;;;;14.77;4.60;;;10.20;99.90;;;;;;5094888;28;20080;-75
2021/11/08 11:01:49;;;;;;;11.27;1.70;;;10.20;99.90;;;;;;5095178;28;20051;-75
2021/11/08 11:04:16;;;;;;;14.73;2.17;;;10.20;99.90;;;;;;5095250;28;20062;-75
2021/11/08 11:06:50;;;;;;;6.63;1.63;;;10.20;99.90;;;;;;5095694;28;20406;-75
2021/11/08 11:09:24;;;;;;;13.30;1.90;;;10.30;99.90;;;;;;5094105;28;20044;-77
2021/11/08 11:12:08;;;;;;;9.18;2.22;;;10.30;99.90;;;;;;5095081;28;20055;-75
2021/11/08 11:14:34;;;;;;;10.98;2.20;;;10.30;99.90;;;;;;5094101;28;20039;-77
2021/11/08 11:17:07;;;;;;;17.67;2.70;;;10.30;99.90;;;;;;5076082;28;20469;-78
2021/11/08 11:19:34;;;;;;;13.20;2.03;;;10.40;99.90;;;;;;5092297;28;20054;-78
2021/11/08 11:22:07;;;;;;;10.55;2.30;;;10.50;99.90;;;;;;5092922;28;20048;-77
2021/11/08 11:24:42;;;;;;;17.05;2.17;;;10.60;99.90;;;;;;5093630;28;20119;-78
2021/11/08 11:27:16;;;;;;;8.57;2.33;;;10.60;99.90;;;;;;5093611;28;20115;-76
2021/11/08 11:29:42;;;;;;;13.60;2.40;;;10.70;99.90;;;;;;5093648;28;20142;-76
2021/11/08 11:32:24;;;;;;;13.77;2.15;;;10.70;99.90;;;;;;5094881;28;20453;-75
2021/11/08 11:34:52;;;;;;;11.98;1.95;;;10.90;99.90;;;;;;5095355;28;20052;-77
2021/11/08 11:37:19;;;;;;;15.15;2.40;;;10.80;99.90;;;;;;5093424;28;20040;-77
2021/11/08 11:39:45;;;;;;;13.57;2.15;;;10.80;99.90;;;;;;5093656;28;20096;-78
2021/11/08 11:42:11;;;;;;;10.57;2.17;;;10.80;99.90;;;;;;5093803;28;20122;-77
2021/11/08 11:44:38;;;;;;;11.15;1.83;;;10.90;99.90;;;;;;5095136;28;20032;-77
2021/11/08 11:47:16;;;;;;;8.15;1.60;;;11.00;99.90;;;;;;5093907;28;20054;-77
2021/11/08 11:49:43;;;;;;;10.55;1.83;;;11.00;99.90;;;;;;5076656;28;20553;-78
2021/11/08 11:52:10;;;;;;;13.15;2.30;;;11.00;99.90;;;;;;5093323;28;20055;-77
2021/11/08 11:54:36;;;;;;;13.18;2.03;;;11.10;99.90;;;;;;5094453;28;20054;-77
2021/11/08 11:57:03;;;;;;;12.90;2.50;;;11.10;99.90;;;;;;5093147;28;20040;-76
2021/11/08 11:59:30;;;;;;;19.00;2.40;;;11.10;99.90;;;;;;5094902;28;20046;-80
2021/11/08 12:01:56;;;;;;;9.52;2.45;;;11.20;99.90;;;;;;5094236;28;20084;-75
2021/11/08 12:04:22;;;;;;;8.18;2.92;;;11.20;99.90;;;;;;5092797;28;20047;-75
2021/11/08 12:06:52;;;;;;;13.00;2.03;;;11.20;99.90;;;;;;5093955;28;20400;-76
2021/11/08 12:09:20;;;;;;;15.70;2.95;;;11.20;99.90;;;;;;5092125;28;20119;-75
2021/11/08 12:11:52;;;;;;;13.18;2.85;;;11.20;99.90;;;;;;5093634;28;20054;-75
2021/11/08 12:14:23;;;;;;;14.23;2.17;;;11.20;99.90;;;;;;5093605;28;20036;-75
2021/11/08 12:16:57;;;;;;;11.15;2.33;;;11.20;99.90;;;;;;5092183;28;20044;-75
2021/11/08 12:19:27;;;;;;;12.77;2.50;;;11.20;99.90;;;;;;5092226;28;20040;-75
2021/11/08 12:21:55;;;;;;;8.73;1.67;;;11.20;99.90;;;;;;5075564;28;20431;-76
2021/11/08 12:24:29;;;;;;;10.55;2.40;;;11.20;99.90;;;;;;5092449;28;20043;-75
2021/11/08 12:27:12;;;;;;;14.07;2.10;;;11.30;99.90;;;;;;5093762;28;20039;-75
2021/11/08 12:29:53;;;;;;;14.67;3.57;;;11.20;99.90;;;;;;5093505;28;20047;-75
2021/11/08 12:32:19;;;;;;;9.05;2.08;;;11.20;99.90;;;;;;5093625;28;20273;-75
2021/11/08 12:34:54;;;;;;;17.50;2.53;;;11.20;99.90;;;;;;5094073;28;20036;-76
2021/11/08 12:37:32;;;;;;;9.95;1.95;;;11.20;99.90;;;;;;5092694;28;20040;-76
2021/11/08 12:39:59;;;;;;;17.52;3.20;;;11.20;99.90;;;;;;5091816;28;20503;-76
2021/11/08 12:42:39;;;;;;;22.35;3.45;;;11.10;99.90;;;;;;5092048;28;20124;-74
2021/11/08 12:45:23;;;;;;;18.50;3.70;;;11.10;99.90;;;;;;5093643;28;20040;-74
2021/11/08 12:48:18;;;;;;;20.55;3.95;;;11.10;99.90;;;;;;5093608;28;20193;-74
2021/11/08 12:50:49;;;;;;;16.05;2.30;;;11.10;99.90;;;;;;5080159;28;20052;-77
2021/11/08 12:53:31;;;;;;;13.40;2.80;;;11.10;99.90;;;;;;5092793;28;20036;-74
2021/11/08 12:56:00;;;;;;;15.47;2.80;;;11.10;99.90;;;;;;5093740;28;20091;-74
2021/11/08 12:58:39;;;;;;;17.88;2.97;;;11.10;99.90;;;;;;5092159;28;20115;-74
2021/11/08 13:01:07;;;;;;;19.55;3.05;;;11.20;99.90;;;;;;5093539;28;20039;-74
2021/11/08 13:03:37;;;;;;;20.95;3.40;;;11.20;99.90;;;;;;5093158;28;20500;-74
2021/11/08 13:06:04;;;;;;;13.40;3.05;;;11.30;99.90;;;;;;5093464;28;20131;-74
2021/11/08 13:08:31;;;;;;;15.60;3.05;;;11.20;99.90;;;;;;5093033;28;20388;-74
2021/11/08 13:11:13;;;;;;;16.20;2.70;;;11.30;99.90;;;;;;5093555;28;20495;-74
2021/11/08 13:13:41;;;;;;;17.55;3.13;;;11.30;99.90;;;;;;5091771;28;20115;-74
2021/11/08 13:16:12;;;;;;;21.25;4.05;;;11.20;99.90;;;;;;5092999;28;20495;-74
2021/11/08 13:18:46;;;;;;;16.65;2.60;;;11.20;99.90;;;;;;5091486;28;20072;-74
2021/11/08 13:21:21;;;;;;;13.38;3.00;;;11.20;99.90;;;;;;5093313;28;20119;-75
2021/11/08 13:23:53;;;;;;;26.67;3.97;;;11.20;99.90;;;;;;5092083;28;20044;-75
2021/11/08 13:26:19;;;;;;;14.80;3.10;;;11.20;99.90;;;;;;5092267;28;20131;-76
2021/11/08 13:28:44;;;;;;;22.20;4.40;;;11.20;99.90;;;;;;5093084;28;20511;-76
2021/11/08 13:31:15;;;;;;;24.70;3.25;;;11.20;99.90;;;;;;5092057;28;20046;-76
2021/11/08 13:33:45;;;;;;;13.60;4.22;;;11.20;99.90;;;;;;5093097;28;20096;-76
2021/11/08 13:36:13;;;;;;;14.43;3.08;;;11.20;99.90;;;;;;5093158;28;20139;-76
2021/11/08 13:39:08;;;;;;;16.10;2.83;;;11.20;99.90;;;;;;5092647;28;20515;-76
2021/11/08 13:41:34;;;;;;;18.73;3.40;;;11.10;99.90;;;;;;5079221;28;20044;-76
2021/11/08 13:44:07;;;;;;;23.92;3.05;;;11.10;99.90;;;;;;5093024;28;20032;-76
2021/11/08 13:46:35;;;;;;;14.53;2.57;;;11.10;99.90;;;;;;5093038;28;20047;-75
2021/11/08 13:49:10;;;;;;;21.90;3.15;;;11.10;99.90;;;;;;5093002;28;20036;-75
2021/11/08 13:51:48;;;;;;;20.58;3.42;;;11.10;99.90;;;;;;5093066;28;20107;-75
2021/11/08 13:54:27;;;;;;;16.88;3.63;;;11.10;99.90;;;;;;5091443;28;20044;-76
2021/11/08 13:57:00;;;;;;;16.25;3.45;;;11.20;99.90;;;;;;5093303;28;20040;-75
2021/11/08 13:59:30;;;;;;;17.20;3.05;;;11.10;99.90;;;;;;5091228;28;20123;-75
2021/11/08 14:02:04;;;;;;;13.05;3.50;;;11.10;99.90;;;;;;5091472;28;20044;-75
2021/11/08 14:04:32;;;;;;;16.48;2.85;;;11.10;99.90;;;;;;5093331;28;20138;-76
2021/11/08 14:06:58;;;;;;;21.17;3.63;;;11.10;99.90;;;;;;5096227;28;20048;-75
2021/11/08 14:09:24;;;;;;;15.10;3.28;;;11.20;99.90;;;;;;5096049;28;20048;-75
2021/11/08 14:11:54;;;;;;;17.73;3.20;;;11.20;99.90;;;;;;5095092;28;20039;-75
2021/11/08 14:14:26;;;;;;;21.23;3.65;;;11.20;99.90;;;;;;5096462;28;20040;-75
2021/11/08 14:16:55;;;;;;;20.45;3.03;;;11.10;99.90;;;;;;5094920;28;20165;-75
2021/11/08 14:19:22;;;;;;;16.08;2.85;;;11.20;99.90;;;;;;5095654;28;20050;-75
2021/11/08 14:21:52;;;;;;;14.82;2.45;;;11.20;99.90;;;;;;5095927;28;20408;-75
2021/11/08 14:24:21;;;;;;;19.65;3.75;;;11.20;99.90;;;;;;5094840;28;20136;-75
2021/11/08 14:26:56;;;;;;;19.60;3.60;;;11.20;99.90;;;;;;5096304;28;20044;-75
2021/11/08 14:29:30;;;;;;;14.00;2.75;;;11.10;99.90;;;;;;5094575;28;20040;-75
2021/11/08 14:32:26;;;;;;;19.65;3.33;;;11.10;99.90;;;;;;5096059;28;20075;-75